Time;durP1;ratioP1;P1;durP2;ratioP2;P2;SDS_P1;SDS_P2;PMS_P1;PMS_P2;Temp;Humidity;BMP_temperature;BMP_pressure;BME280_temperature;BME280_humidity;BME280_pressure;Samples;Min_cycle;Max_cycle;Signal;HPM_P1;HPM_P2
2023/05/27 00:01:25;;;;;;;;;;;16.40;87.50;;;;;;6096284;23;19905;-96
2023/05/27 00:03:53;;;;;;;;;;;16.10;87.30;;;;;;6097275;23;19912;-96
2023/05/27 00:06:19;;;;;;;;;;;16.40;87.50;;;;;;6098170;23;19906;-96
2023/05/27 00:08:47;;;;;;;;;;;16.10;87.20;;;;;;6095937;23;19905;-96
2023/05/27 00:11:15;;;;;;;;;;;16.10;87.00;;;;;;6096636;23;19906;-96
2023/05/27 00:13:43;;;;;;;;;;;16.10;87.20;;;;;;6097276;23;19959;-96
2023/05/27 00:16:12;;;;;;;;;;;16.10;87.10;;;;;;6097622;23;19912;-96
2023/05/27 00:18:39;;;;;;;;;;;16.00;86.90;;;;;;6096134;23;19906;-95
2023/05/27 00:21:04;;;;;;;;;;;16.00;87.10;;;;;;6098942;23;19944;-96
2023/05/27 00:23:30;;;;;;;;;;;16.00;86.80;;;;;;6098082;23;19912;-96
2023/05/27 00:25:56;;;;;;;;;;;16.00;86.90;;;;;;6101166;23;19905;-96
2023/05/27 00:28:28;;;;;;;;;;;16.00;86.70;;;;;;6099204;23;19913;-96
2023/05/27 00:30:57;;;;;;;;;;;15.90;86.60;;;;;;6079143;23;19909;-96
2023/05/27 00:33:26;;;;;;;;;;;16.00;86.70;;;;;;6104147;23;19921;-96
2023/05/27 00:35:51;;;;;;;;;;;17.10;87.50;;;;;;6099835;23;20319;-95
2023/05/27 00:38:18;;;;;;;;;;;16.00;86.70;;;;;;6102851;23;19976;-96
2023/05/27 00:40:44;;;;;;;;;;;16.00;86.80;;;;;;6100194;23;20311;-96
2023/05/27 00:43:10;;;;;;;;;;;16.00;86.50;;;;;;6099839;23;19929;-96
2023/05/27 00:45:38;;;;;;;;;;;16.00;86.50;;;;;;6102320;23;19953;-96
2023/05/27 00:48:04;;;;;;;;;;;16.00;86.50;;;;;;6099553;23;19920;-96
2023/05/27 00:50:35;;;;;;;;;;;16.00;86.40;;;;;;6073129;23;19909;-96
2023/05/27 00:53:00;;;;;;;;;;;16.00;86.30;;;;;;6073970;23;19909;-96
2023/05/27 00:55:26;;;;;;;;;;;16.00;86.40;;;;;;6097068;23;20311;-96
2023/05/27 00:57:54;;;;;;;;;;;16.00;86.40;;;;;;6099647;23;19905;-96
2023/05/27 01:00:20;;;;;;;;;;;16.00;86.20;;;;;;6097994;23;19961;-96
2023/05/27 01:02:47;;;;;;;;;;;16.00;85.90;;;;;;6098506;23;19906;-96
2023/05/27 01:05:18;;;;;;;;;;;16.50;86.00;;;;;;6099739;23;19905;-95
2023/05/27 01:07:58;;;;;;;;;;;16.20;86.00;;;;;;6098187;23;20402;-96
2023/05/27 01:10:36;;;;;;;;;;;15.90;85.80;;;;;;6099404;23;19911;-96
2023/05/27 01:13:15;;;;;;;;;;;15.90;85.80;;;;;;6096172;23;19905;-96
2023/05/27 01:15:41;;;;;;;;;;;15.90;85.80;;;;;;6097600;23;19906;-95
2023/05/27 01:18:08;;;;;;;;;;;15.90;85.70;;;;;;6098737;23;19913;-96
2023/05/27 01:20:34;;;;;;;;;;;15.90;85.60;;;;;;6098638;23;19906;-96
2023/05/27 01:23:01;;;;;;;;;;;15.90;85.60;;;;;;6099160;23;19905;-95
2023/05/27 01:25:27;;;;;;;;;;;15.90;85.60;;;;;;6098392;23;19957;-96
2023/05/27 01:27:55;;;;;;;;;;;15.90;85.60;;;;;;6074421;23;20391;-94
2023/05/27 01:30:24;;;;;;;;;;;15.90;85.70;;;;;;6099105;23;19909;-96
2023/05/27 01:33:03;;;;;;;;;;;15.90;85.60;;;;;;6100060;23;19906;-96
2023/05/27 01:35:31;;;;;;;;;;;15.90;85.60;;;;;;6098405;23;19906;-95
2023/05/27 01:37:59;;;;;;;;;;;15.90;85.60;;;;;;6098641;23;19987;-95
2023/05/27 01:40:24;;;;;;;;;;;16.00;85.70;;;;;;6098635;23;19984;-94
2023/05/27 01:42:50;;;;;;;;;;;15.90;85.50;;;;;;6097599;23;19912;-96
2023/05/27 01:45:16;;;;;;;;;;;15.90;85.40;;;;;;6097837;23;19905;-96
2023/05/27 01:47:45;;;;;;;;;;;15.90;85.20;;;;;;6073641;23;19950;-96
2023/05/27 01:50:10;;;;;;;;;;;15.90;85.20;;;;;;6097981;23;19976;-94
2023/05/27 01:52:36;;;;;;;;;;;15.90;85.20;;;;;;6098138;23;19912;-93
2023/05/27 01:55:02;;;;;;;;;;;15.90;85.10;;;;;;6096098;23;19912;-94
2023/05/27 01:57:29;;;;;;;;;;;15.90;85.10;;;;;;6096364;23;20037;-96
2023/05/27 01:59:54;;;;;;;;;;;15.90;85.10;;;;;;6096517;23;19913;-95
2023/05/27 02:02:20;;;;;;;;;;;15.90;84.90;;;;;;6096669;23;19906;-95
2023/05/27 02:04:46;;;;;;;;;;;15.90;85.00;;;;;;6097432;23;19929;-94
2023/05/27 02:07:11;;;;;;;;;;;15.90;85.00;;;;;;6095528;23;19917;-95
2023/05/27 02:09:37;;;;;;;;;;;15.90;85.00;;;;;;6096837;23;19934;-94
2023/05/27 02:12:02;;;;;;;;;;;15.90;85.00;;;;;;6095997;23;19968;-94
2023/05/27 02:14:28;;;;;;;;;;;15.90;85.00;;;;;;6096085;23;19905;-95
2023/05/27 02:16:54;;;;;;;;;;;15.90;84.90;;;;;;6095146;23;19905;-93
2023/05/27 02:19:20;;;;;;;;;;;15.90;84.90;;;;;;6096226;23;19905;-95
2023/05/27 02:21:46;;;;;;;;;;;15.80;84.90;;;;;;6096490;23;19988;-96
2023/05/27 02:24:11;;;;;;;;;;;15.80;84.90;;;;;;6096320;23;20568;-95
2023/05/27 02:26:37;;;;;;;;;;;15.80;84.80;;;;;;6096088;23;20009;-94
2023/05/27 02:29:02;;;;;;;;;;;15.80;84.80;;;;;;6096827;23;20231;-95
2023/05/27 02:31:28;;;;;;;;;;;15.90;84.80;;;;;;6096637;23;20212;-94
2023/05/27 02:33:54;;;;;;;;;;;15.80;84.70;;;;;;6071992;23;19909;-95
2023/05/27 02:36:21;;;;;;;;;;;15.80;84.60;;;;;;6096158;23;20200;-93
2023/05/27 02:38:46;;;;;;;;;;;16.10;84.80;;;;;;6095516;23;19910;-94
2023/05/27 02:41:12;;;;;;;;;;;15.80;84.60;;;;;;6095835;23;19932;-95
2023/05/27 02:43:37;;;;;;;;;;;15.80;84.50;;;;;;6072220;23;19949;-95
2023/05/27 02:46:03;;;;;;;;;;;15.80;84.60;;;;;;6096059;23;20013;-95
2023/05/27 02:48:29;;;;;;;;;;;15.80;84.60;;;;;;6095945;23;20287;-94
2023/05/27 02:50:54;;;;;;;;;;;15.80;84.50;;;;;;6072209;23;20402;-94
2023/05/27 02:53:20;;;;;;;;;;;15.80;84.40;;;;;;6096024;23;19969;-92
2023/05/27 02:55:45;;;;;;;;;;;15.80;84.50;;;;;;6096307;23;19976;-93
2023/05/27 02:58:11;;;;;;;;;;;15.80;84.50;;;;;;6095938;23;19909;-93
2023/05/27 03:00:36;;;;;;;;;;;15.80;84.60;;;;;;6095954;23;19917;-94
2023/05/27 03:03:05;;;;;;;;;;;15.80;84.60;;;;;;6095155;23;19958;-93
2023/05/27 03:05:30;;;;;;;;;;;15.80;84.60;;;;;;6095747;23;19980;-94
2023/05/27 03:07:56;;;;;;;;;;;15.80;84.70;;;;;;6094569;23;20366;-93
2023/05/27 03:10:21;;;;;;;;;;;15.70;84.70;;;;;;6095116;23;20338;-93
2023/05/27 03:12:47;;;;;;;;;;;16.20;85.00;;;;;;6095433;23;20295;-93
2023/05/27 03:15:12;;;;;;;;;;;15.70;84.70;;;;;;6095442;23;19905;-95
2023/05/27 03:17:38;;;;;;;;;;;15.80;84.90;;;;;;6095530;23;19905;-96
2023/05/27 03:20:05;;;;;;;;;;;15.70;84.90;;;;;;6095531;23;20251;-93
2023/05/27 03:22:31;;;;;;;;;;;15.70;84.70;;;;;;6096001;23;19912;-93
2023/05/27 03:24:57;;;;;;;;;;;15.70;84.70;;;;;;6095095;23;19909;-92
2023/05/27 03:27:22;;;;;;;;;;;15.80;84.80;;;;;;6095749;23;20000;-94
2023/05/27 03:29:48;;;;;;;;;;;15.70;84.70;;;;;;6095204;23;20350;-94
2023/05/27 03:32:14;;;;;;;;;;;15.70;84.70;;;;;;6095365;23;19931;-93
2023/05/27 03:34:40;;;;;;;;;;;15.70;84.70;;;;;;6095054;23;19909;-93
2023/05/27 03:37:05;;;;;;;;;;;15.70;84.70;;;;;;6094963;23;20410;-94
2023/05/27 03:39:31;;;;;;;;;;;15.70;84.50;;;;;;6095374;23;19948;-94
2023/05/27 03:41:56;;;;;;;;;;;15.70;84.50;;;;;;6095961;23;19987;-94
2023/05/27 03:44:22;;;;;;;;;;;15.70;84.50;;;;;;6094901;23;19905;-94
2023/05/27 03:46:48;;;;;;;;;;;15.70;84.40;;;;;;6071096;23;19921;-94
2023/05/27 03:49:13;;;;;;;;;;;15.70;84.50;;;;;;6095960;23;19915;-92
2023/05/27 03:51:39;;;;;;;;;;;15.70;84.40;;;;;;6095894;23;19909;-95
2023/05/27 03:54:05;;;;;;;;;;;15.70;84.30;;;;;;6095170;23;19916;-95
2023/05/27 03:56:31;;;;;;;;;;;15.70;84.30;;;;;;6095156;23;19905;-93
2023/05/27 03:58:56;;;;;;;;;;;15.70;84.50;;;;;;6095536;23;20085;-94
2023/05/27 04:01:22;;;;;;;;;;;15.40;84.10;;;;;;6093982;23;19905;-94
2023/05/27 04:03:48;;;;;;;;;;;15.60;84.30;;;;;;6095567;23;20348;-93
2023/05/27 04:06:14;;;;;;;;;;;15.70;84.30;;;;;;6095266;23;19905;-93
2023/05/27 04:08:40;;;;;;;;;;;15.70;84.30;;;;;;6095085;23;19913;-93
2023/05/27 04:11:06;;;;;;;;;;;15.60;84.30;;;;;;6095696;23;19932;-94
2023/05/27 04:13:31;;;;;;;;;;;15.70;84.20;;;;;;6095545;23;19912;-94
2023/05/27 04:15:57;;;;;;;;;;;15.70;84.20;;;;;;6094749;23;19909;-94
2023/05/27 04:18:22;;;;;;;;;;;15.70;84.10;;;;;;6095214;23;19980;-93
2023/05/27 04:20:50;;;;;;;;;;;15.60;84.00;;;;;;6094981;23;19912;-93
2023/05/27 04:23:16;;;;;;;;;;;15.60;84.00;;;;;;6094820;23;19941;-94
2023/05/27 04:25:41;;;;;;;;;;;15.70;84.10;;;;;;6094746;23;19905;-92
2023/05/27 04:28:08;;;;;;;;;;;15.60;84.10;;;;;;6094707;23;19980;-95
2023/05/27 04:30:34;;;;;;;;;;;15.60;84.10;;;;;;6095015;23;20386;-94
2023/05/27 04:33:03;;;;;;;;;;;15.60;84.00;;;;;;6095707;23;19913;-95
2023/05/27 04:35:30;;;;;;;;;;;16.50;84.60;;;;;;6095096;23;19928;-93
2023/05/27 04:37:58;;;;;;;;;;;15.60;83.90;;;;;;6095066;23;19913;-94
2023/05/27 04:40:24;;;;;;;;;;;15.60;83.90;;;;;;6094292;23;19917;-93
2023/05/27 04:42:50;;;;;;;;;;;15.60;84.00;;;;;;6095284;23;19911;-94
2023/05/27 04:45:16;;;;;;;;;;;15.60;83.90;;;;;;6094572;23;20288;-93
2023/05/27 04:47:41;;;;;;;;;;;16.10;84.20;;;;;;6094867;23;19945;-94
2023/05/27 04:50:10;;;;;;;;;;;15.60;83.80;;;;;;6072898;23;19917;-92
2023/05/27 04:52:41;;;;;;;;;;;15.60;83.80;;;;;;6096679;23;19913;-94
2023/05/27 04:55:07;;;;;;;;;;;15.60;83.80;;;;;;6097071;23;19984;-94
2023/05/27 04:57:33;;;;;;;;;;;15.60;83.80;;;;;;6096996;23;19905;-93
2023/05/27 05:00:17;;;;;;;;;;;15.70;83.90;;;;;;6096631;23;19909;-93
2023/05/27 05:02:46;;;;;;;;;;;15.70;83.80;;;;;;6096865;23;19913;-93
2023/05/27 05:05:12;;;;;;;;;;;15.70;83.80;;;;;;6073768;23;19920;-93
2023/05/27 05:07:39;;;;;;;;;;;15.70;83.80;;;;;;6097280;23;19917;-93
2023/05/27 05:10:07;;;;;;;;;;;15.70;83.70;;;;;;6097602;23;20299;-93
2023/05/27 05:12:32;;;;;;;;;;;15.70;83.60;;;;;;6097740;23;19909;-93
2023/05/27 05:14:58;;;;;;;;;;;15.70;83.70;;;;;;6096807;23;20370;-94
2023/05/27 05:17:24;;;;;;;;;;;15.70;83.70;;;;;;6097504;23;19912;-94
2023/05/27 05:19:50;;;;;;;;;;;15.70;83.60;;;;;;6096965;23;19976;-93
2023/05/27 05:22:18;;;;;;;;;;;15.70;83.60;;;;;;6095896;23;19905;-93
2023/05/27 05:24:44;;;;;;;;;;;15.70;83.40;;;;;;6096222;23;19905;-93
2023/05/27 05:27:10;;;;;;;;;;;15.80;83.50;;;;;;6096315;23;19920;-93
2023/05/27 05:29:36;;;;;;;;;;;15.80;84.10;;;;;;6096539;23;19909;-94
2023/05/27 05:32:02;;;;;;;;;;;15.80;83.20;;;;;;6096665;23;19909;-95
2023/05/27 05:34:28;;;;;;;;;;;15.80;83.30;;;;;;6096473;23;20323;-92
2023/05/27 05:36:53;;;;;;;;;;;15.80;83.20;;;;;;6095746;23;19905;-93
2023/05/27 05:39:20;;;;;;;;;;;15.80;83.10;;;;;;6096010;23;20101;-93
2023/05/27 05:41:45;;;;;;;;;;;15.80;83.00;;;;;;6096595;23;19916;-93
2023/05/27 05:44:14;;;;;;;;;;;15.90;83.10;;;;;;6096350;23;19905;-93
2023/05/27 05:46:40;;;;;;;;;;;15.90;83.00;;;;;;6095643;23;19936;-93
2023/05/27 05:49:05;;;;;;;;;;;15.90;82.90;;;;;;6096537;23;19920;-92
2023/05/27 05:51:31;;;;;;;;;;;15.90;82.80;;;;;;6096900;23;19936;-93
2023/05/27 05:53:57;;;;;;;;;;;15.90;82.70;;;;;;6096653;23;20429;-94
2023/05/27 05:56:22;;;;;;;;;;;16.00;82.50;;;;;;6096927;23;19968;-93
2023/05/27 05:58:48;;;;;;;;;;;16.00;82.30;;;;;;6096788;23;20231;-94
2023/05/27 06:01:13;;;;;;;;;;;16.00;82.10;;;;;;6096255;23;20330;-94
2023/05/27 06:03:39;;;;;;;;;;;16.00;82.10;;;;;;6096066;23;19910;-94
2023/05/27 06:06:05;;;;;;;;;;;16.10;82.20;;;;;;6097001;23;19906;-93
2023/05/27 06:08:30;;;;;;;;;;;16.10;82.20;;;;;;6095792;23;19920;-93
2023/05/27 06:10:56;;;;;;;;;;;16.10;82.20;;;;;;6096145;23;20291;-93
2023/05/27 06:13:21;;;;;;;;;;;16.10;82.10;;;;;;6096197;23;19905;-93
2023/05/27 06:15:47;;;;;;;;;;;16.10;82.10;;;;;;6096097;23;19920;-93
2023/05/27 06:18:13;;;;;;;;;;;16.20;82.20;;;;;;6071642;23;20231;-93
2023/05/27 06:20:38;;;;;;;;;;;16.30;81.90;;;;;;6072146;23;19916;-92
2023/05/27 06:23:04;;;;;;;;;;;16.30;81.70;;;;;;6072122;23;20308;-93
2023/05/27 06:25:29;;;;;;;;;;;16.30;81.80;;;;;;6095926;23;20220;-93
2023/05/27 06:27:55;;;;;;;;;;;16.30;81.60;;;;;;6096438;23;19968;-94
2023/05/27 06:30:20;;;;;;;;;;;16.40;81.60;;;;;;6096065;23;19976;-93
2023/05/27 06:32:46;;;;;;;;;;;16.40;81.30;;;;;;6095893;23;19956;-92
2023/05/27 06:35:11;;;;;;;;;;;16.40;81.40;;;;;;6094835;23;19917;-92
2023/05/27 06:37:37;;;;;;;;;;;16.50;81.40;;;;;;6095780;23;19909;-94
2023/05/27 06:40:03;;;;;;;;;;;16.40;81.30;;;;;;6095734;23;20311;-94
2023/05/27 06:42:28;;;;;;;;;;;16.50;81.40;;;;;;6071719;23;20319;-94
2023/05/27 06:44:54;;;;;;;;;;;16.60;81.20;;;;;;6095739;23;19906;-92
2023/05/27 06:47:20;;;;;;;;;;;16.60;81.40;;;;;;6095975;23;19920;-92
2023/05/27 06:49:45;;;;;;;;;;;16.60;81.30;;;;;;6095962;23;19928;-94
2023/05/27 06:52:11;;;;;;;;;;;16.70;81.20;;;;;;6095718;23;19905;-92
2023/05/27 06:54:36;;;;;;;;;;;16.70;81.00;;;;;;6095525;23;19909;-93
2023/05/27 06:57:02;;;;;;;;;;;16.70;81.60;;;;;;6096299;23;19906;-94
2023/05/27 06:59:28;;;;;;;;;;;16.80;80.80;;;;;;6095845;23;19964;-94
2023/05/27 07:01:53;;;;;;;;;;;16.80;80.90;;;;;;6095385;23;19909;-93
2023/05/27 07:04:19;;;;;;;;;;;16.90;80.90;;;;;;6094324;23;19937;-94
2023/05/27 07:06:45;;;;;;;;;;;16.90;80.80;;;;;;6095450;23;19913;-94
2023/05/27 07:09:11;;;;;;;;;;;16.90;80.70;;;;;;6095611;23;19934;-94
2023/05/27 07:11:36;;;;;;;;;;;16.90;81.50;;;;;;6095281;23;19933;-93
2023/05/27 07:14:02;;;;;;;;;;;17.00;80.60;;;;;;6095728;23;19913;-93
2023/05/27 07:16:28;;;;;;;;;;;17.00;80.40;;;;;;6095645;23;19920;-93
2023/05/27 07:18:53;;;;;;;;;;;17.10;80.20;;;;;;6096364;23;19984;-94
2023/05/27 07:21:19;;;;;;;;;;;17.10;80.10;;;;;;6095393;23;20000;-96
2023/05/27 07:23:44;;;;;;;;;;;17.10;79.70;;;;;;6095324;23;19905;-94
2023/05/27 07:26:10;;;;;;;;;;;17.20;79.60;;;;;;6095535;23;19905;-95
2023/05/27 07:28:37;;;;;;;;;;;17.20;79.20;;;;;;6095879;23;20323;-95
2023/05/27 07:31:03;;;;;;;;;;;17.20;79.10;;;;;;6095551;23;20372;-95
2023/05/27 07:33:29;;;;;;;;;;;17.30;79.00;;;;;;6095553;23;19909;-94
2023/05/27 07:35:54;;;;;;;;;;;17.30;78.70;;;;;;6095287;23;19988;-93
2023/05/27 07:38:20;;;;;;;;;;;17.30;78.60;;;;;;6095602;23;19910;-96
2023/05/27 07:40:45;;;;;;;;;;;18.00;79.00;;;;;;6098376;23;20208;-93
2023/05/27 07:43:11;;;;;;;;;;;17.60;78.30;;;;;;6095385;23;19905;-93
2023/05/27 07:45:36;;;;;;;;;;;17.40;78.30;;;;;;6095316;23;19928;-95
2023/05/27 07:48:02;;;;;;;;;;;17.50;78.20;;;;;;6095776;23;19913;-96
2023/05/27 07:50:28;;;;;;;;;;;17.50;78.00;;;;;;6071909;23;19949;-94
2023/05/27 07:52:54;;;;;;;;;;;17.50;77.90;;;;;;6098182;23;19949;-96
2023/05/27 07:55:19;;;;;;;;;;;17.50;77.80;;;;;;6096234;23;20216;-96
2023/05/27 07:57:45;;;;;;;;;;;17.60;77.80;;;;;;6097322;23;19928;-93
2023/05/27 08:00:11;;;;;;;;;;;18.20;78.00;;;;;;6096668;23;19952;-96
2023/05/27 08:02:36;;;;;;;;;;;17.60;77.50;;;;;;6096756;23;19956;-96
2023/05/27 08:05:03;;;;;;;;;;;17.70;77.50;;;;;;6072597;23;19960;-96
2023/05/27 08:07:29;;;;;;;;;;;17.70;77.50;;;;;;6096238;23;19924;-96
2023/05/27 08:09:57;;;;;;;;;;;17.70;77.50;;;;;;6096600;23;19909;-96
2023/05/27 08:12:23;;;;;;;;;;;17.70;77.30;;;;;;6095409;23;19993;-94
2023/05/27 08:14:49;;;;;;;;;;;17.80;77.30;;;;;;6095292;23;19905;-95
2023/05/27 08:17:15;;;;;;;;;;;17.80;77.00;;;;;;6095493;23;19906;-96
2023/05/27 08:19:41;;;;;;;;;;;17.80;76.80;;;;;;6095342;23;19961;-96
2023/05/27 08:22:08;;;;;;;;;;;17.80;76.80;;;;;;6095702;23;19937;-96
2023/05/27 08:24:34;;;;;;;;;;;17.90;76.80;;;;;;6096101;23;20338;-96
2023/05/27 08:27:00;;;;;;;;;;;17.90;76.80;;;;;;6097850;23;20327;-96
2023/05/27 08:29:27;;;;;;;;;;;17.90;76.80;;;;;;6099068;23;20239;-96
2023/05/27 08:31:53;;;;;;;;;;;18.20;76.90;;;;;;6097928;23;20036;-95
2023/05/27 08:34:19;;;;;;;;;;;18.00;76.80;;;;;;6097694;23;19905;-96
2023/05/27 08:36:44;;;;;;;;;;;18.00;76.60;;;;;;6097205;23;19988;-96
2023/05/27 08:39:11;;;;;;;;;;;18.00;76.60;;;;;;6099904;23;19974;-95
2023/05/27 08:41:37;;;;;;;;;;;18.60;77.10;;;;;;6074250;23;19965;-96
2023/05/27 08:44:02;;;;;;;;;;;18.00;76.70;;;;;;6071653;23;19905;-93
2023/05/27 08:46:28;;;;;;;;;;;18.10;76.40;;;;;;6073028;23;19906;-96
2023/05/27 08:48:55;;;;;;;;;;;18.10;76.50;;;;;;6072735;23;19969;-96
2023/05/27 08:51:21;;;;;;;;;;;18.10;76.40;;;;;;6074741;23;19910;-94
2023/05/27 08:53:47;;;;;;;;;;;18.40;76.40;;;;;;6073179;23;19936;-96
2023/05/27 08:56:15;;;;;;;;;;;18.10;76.80;;;;;;6071726;23;19905;-96
2023/05/27 08:58:41;;;;;;;;;;;18.10;76.20;;;;;;6072836;23;19992;-96
2023/05/27 09:01:08;;;;;;;;;;;18.20;76.40;;;;;;6073108;23;19905;-96
2023/05/27 09:03:33;;;;;;;;;;;18.10;76.20;;;;;;6073772;23;19905;-96
2023/05/27 09:06:03;;;;;;;;;;;18.20;76.20;;;;;;6073278;23;19905;-95
2023/05/27 09:08:29;;;;;;;;;;;18.20;76.20;;;;;;6071239;23;20324;-94
2023/05/27 09:10:55;;;;;;;;;;;18.40;76.30;;;;;;6071682;23;19958;-95
2023/05/27 09:13:30;;;;;;;;;;;18.20;76.10;;;;;;6047083;23;20009;-96
2023/05/27 09:16:03;;;;;;;;;;;18.20;76.10;;;;;;6071399;23;19905;-96
2023/05/27 09:18:29;;;;;;;;;;;18.20;76.10;;;;;;6071265;23;19941;-96
2023/05/27 09:20:55;;;;;;;;;;;18.30;76.20;;;;;;6072241;23;19905;-96
2023/05/27 09:23:21;;;;;;;;;;;18.30;76.10;;;;;;6070826;23;19905;-96
2023/05/27 09:25:47;;;;;;;;;;;18.30;76.20;;;;;;6070744;23;19905;-96
2023/05/27 09:28:20;;;;;;;;;;;18.30;76.00;;;;;;6071068;23;19913;-96
2023/05/27 09:30:50;;;;;;;;;;;18.30;76.10;;;;;;6071626;23;19916;-96
2023/05/27 09:33:21;;;;;;;;;;;18.30;76.00;;;;;;6071581;23;19906;-96
2023/05/27 09:35:47;;;;;;;;;;;18.30;75.90;;;;;;6073826;23;19905;-95
2023/05/27 09:38:12;;;;;;;;;;;18.40;75.80;;;;;;6073476;23;19912;-95
2023/05/27 09:40:38;;;;;;;;;;;18.40;75.90;;;;;;6089276;23;20354;-96
2023/05/27 09:43:04;;;;;;;;;;;18.30;75.90;;;;;;6097902;23;19905;-92
2023/05/27 09:45:30;;;;;;;;;;;18.40;76.10;;;;;;6098900;23;20311;-96
2023/05/27 09:47:57;;;;;;;;;;;18.40;76.00;;;;;;6097988;23;19913;-95
2023/05/27 09:50:25;;;;;;;;;;;18.40;75.80;;;;;;6096444;23;19912;-95
2023/05/27 09:52:51;;;;;;;;;;;18.40;75.60;;;;;;6097110;23;20337;-96
2023/05/27 09:55:17;;;;;;;;;;;18.40;75.60;;;;;;6096820;23;19949;-96
2023/05/27 09:57:43;;;;;;;;;;;18.90;76.10;;;;;;6096945;23;19906;-96
2023/05/27 10:00:17;;;;;;;;;;;18.40;75.50;;;;;;6097009;23;19985;-95
2023/05/27 10:02:45;;;;;;;;;;;18.40;75.70;;;;;;6097855;23;19989;-95
2023/05/27 10:05:12;;;;;;;;;;;18.40;75.70;;;;;;6097450;23;19906;-96
2023/05/27 10:07:38;;;;;;;;;;;18.40;75.80;;;;;;6098414;23;19921;-96
2023/05/27 10:10:06;;;;;;;;;;;18.40;75.80;;;;;;6101425;23;19949;-95
2023/05/27 10:12:32;;;;;;;;;;;18.40;76.00;;;;;;6101158;23;19912;-95
2023/05/27 10:15:02;;;;;;;;;;;18.70;76.20;;;;;;6101686;23;19918;-96
2023/05/27 10:17:40;;;;;;;;;;;18.40;76.00;;;;;;6100324;23;19905;-96
2023/05/27 10:20:08;;;;;;;;;;;18.40;76.00;;;;;;6098560;23;19929;-96
2023/05/27 10:22:44;;;;;;;;;;;18.40;76.00;;;;;;6097279;23;19906;-96
2023/05/27 10:25:18;;;;;;;;;;;18.40;76.20;;;;;;6102146;23;19913;-96
2023/05/27 10:27:45;;;;;;;;;;;18.40;76.30;;;;;;6100438;23;20319;-96
2023/05/27 10:30:11;;;;;;;;;;;18.30;76.50;;;;;;6098618;23;19905;-96
2023/05/27 10:33:03;;;;;;;;;;;18.40;76.70;;;;;;6101700;23;19984;-96
2023/05/27 10:35:38;;;;;;;;;;;18.30;76.70;;;;;;6093428;23;19909;-96
2023/05/27 10:38:29;;;;;;;;;;;18.30;76.80;;;;;;6097568;23;19912;-96
2023/05/27 10:40:59;;;;;;;;;;;18.30;76.60;;;;;;6100006;23;19913;-95
2023/05/27 10:43:27;;;;;;;;;;;18.30;76.50;;;;;;6099808;23;19932;-95
2023/05/27 10:46:00;;;;;;;;;;;18.30;76.60;;;;;;6101806;23;19906;-96
2023/05/27 10:48:33;;;;;;;;;;;18.30;76.50;;;;;;6103174;23;20478;-96
2023/05/27 10:50:59;;;;;;;;;;;18.20;76.50;;;;;;6102035;23;20264;-96
2023/05/27 10:53:28;;;;;;;;;;;18.20;76.70;;;;;;6101395;23;19913;-96
2023/05/27 10:55:59;;;;;;;;;;;18.10;76.80;;;;;;6104639;23;20575;-96
2023/05/27 10:58:34;;;;;;;;;;;18.10;76.80;;;;;;6108739;23;19905;-96
2023/05/27 11:01:02;;;;;;;;;;;18.10;76.90;;;;;;6080731;23;20341;-96
2023/05/27 11:03:28;;;;;;;;;;;18.10;77.10;;;;;;6073871;23;19936;-95
2023/05/27 11:05:57;;;;;;;;;;;18.00;77.00;;;;;;6099954;23;20020;-95
2023/05/27 11:08:23;;;;;;;;;;;18.00;77.10;;;;;;6098815;23;19924;-96
2023/05/27 11:10:48;;;;;;;;;;;18.00;77.30;;;;;;6100410;23;19945;-95
2023/05/27 11:13:17;;;;;;;;;;;18.00;77.40;;;;;;6100816;23;19912;-96
2023/05/27 11:15:44;;;;;;;;;;;18.00;77.40;;;;;;6102141;23;19945;-95
2023/05/27 11:18:09;;;;;;;;;;;17.90;77.10;;;;;;6099296;23;19992;-94
2023/05/27 11:20:46;;;;;;;;;;;18.00;77.00;;;;;;6102075;23;19912;-96
2023/05/27 11:23:15;;;;;;;;;;;17.90;77.90;;;;;;6102579;23;19906;-96
2023/05/27 11:25:42;;;;;;;;;;;17.90;77.20;;;;;;6098984;23;19932;-95
2023/05/27 11:28:16;;;;;;;;;;;17.90;77.40;;;;;;6099509;23;19920;-96
2023/05/27 11:30:41;;;;;;;;;;;17.90;77.40;;;;;;6099633;23;19960;-96
2023/05/27 11:33:07;;;;;;;;;;;17.90;77.50;;;;;;6098760;23;19909;-94
2023/05/27 11:35:33;;;;;;;;;;;17.90;77.10;;;;;;6097145;23;19905;-95
2023/05/27 11:38:01;;;;;;;;;;;17.90;77.50;;;;;;6097496;23;19924;-96
2023/05/27 11:40:38;;;;;;;;;;;17.80;77.50;;;;;;6099774;23;19945;-96
2023/05/27 11:43:20;;;;;;;;;;;17.80;77.60;;;;;;6107889;23;19906;-96
2023/05/27 11:45:46;;;;;;;;;;;17.70;77.50;;;;;;6108113;23;19906;-96
2023/05/27 11:50:49;;;;;;;;;;;17.80;77.60;;;;;;6101714;23;19921;-96
2023/05/27 11:53:35;;;;;;;;;;;17.70;77.70;;;;;;6079287;23;19960;-96
2023/05/27 11:56:02;;;;;;;;;;;17.70;77.60;;;;;;6080441;23;19948;-96
2023/05/27 11:58:28;;;;;;;;;;;17.80;77.80;;;;;;6078830;23;19905;-96
2023/05/27 12:00:53;;;;;;;;;;;17.70;77.80;;;;;;6078210;23;19969;-96
2023/05/27 12:03:19;;;;;;;;;;;17.70;77.90;;;;;;6079142;23;19912;-96
2023/05/27 12:05:44;;;;;;;;;;;17.70;77.90;;;;;;6074166;23;19909;-95
2023/05/27 12:08:10;;;;;;;;;;;17.70;77.90;;;;;;6073555;23;19913;-96
2023/05/27 12:10:36;;;;;;;;;;;17.70;78.00;;;;;;6075855;23;19933;-96
2023/05/27 12:13:10;;;;;;;;;;;17.60;78.10;;;;;;6075942;23;20378;-96
2023/05/27 12:15:36;;;;;;;;;;;17.60;78.00;;;;;;6071737;23;19947;-95
2023/05/27 12:18:02;;;;;;;;;;;17.60;78.10;;;;;;6075767;23;19906;-96
2023/05/27 12:20:28;;;;;;;;;;;17.60;78.10;;;;;;6101576;23;19909;-96
2023/05/27 12:22:55;;;;;;;;;;;17.60;78.20;;;;;;6075124;23;19969;-96
2023/05/27 12:25:20;;;;;;;;;;;17.60;78.30;;;;;;6073661;23;19909;-96
2023/05/27 12:28:06;;;;;;;;;;;17.60;78.20;;;;;;6078697;23;19919;-96
2023/05/27 12:30:33;;;;;;;;;;;17.60;78.20;;;;;;6079200;23;19943;-96
2023/05/27 12:32:59;;;;;;;;;;;17.60;78.30;;;;;;6072303;23;19984;-96
2023/05/27 12:35:28;;;;;;;;;;;17.60;78.40;;;;;;6080695;23;20098;-96
2023/05/27 12:37:54;;;;;;;;;;;17.60;78.40;;;;;;6053027;23;19965;-96
2023/05/27 12:40:19;;;;;;;;;;;17.60;78.40;;;;;;6073998;23;19905;-96
2023/05/27 12:42:45;;;;;;;;;;;17.60;78.50;;;;;;6073282;23;19916;-96
2023/05/27 12:45:10;;;;;;;;;;;17.60;78.40;;;;;;6081146;23;19905;-96
2023/05/27 12:47:36;;;;;;;;;;;17.60;78.20;;;;;;6080437;23;19920;-96
2023/05/27 12:50:03;;;;;;;;;;;17.60;78.40;;;;;;6082791;23;20307;-95
2023/05/27 12:55:39;;;;;;;;;;;17.60;77.70;;;;;;6062438;23;19922;-96
2023/05/27 12:58:05;;;;;;;;;;;17.60;78.10;;;;;;6049425;23;19937;-96
2023/05/27 13:00:31;;;;;;;;;;;17.60;77.90;;;;;;6075404;23;19979;-94
2023/05/27 13:03:07;;;;;;;;;;;17.60;78.20;;;;;;6060502;23;20193;-96
2023/05/27 13:05:34;;;;;;;;;;;17.50;77.50;;;;;;6080280;23;19905;-95
2023/05/27 13:08:07;;;;;;;;;;;17.50;77.70;;;;;;6081552;23;19965;-96
2023/05/27 13:10:33;;;;;;;;;;;17.50;77.50;;;;;;6159595;23;19912;-95
2023/05/27 13:13:09;;;;;;;;;;;17.50;77.80;;;;;;6171587;23;19908;-96
2023/05/27 13:15:34;;;;;;;;;;;17.50;78.00;;;;;;6168119;23;19928;-94
2023/05/27 13:18:02;;;;;;;;;;;17.50;77.30;;;;;;6165869;23;19916;-96
2023/05/27 13:20:37;;;;;;;;;;;17.50;77.40;;;;;;6143002;23;19928;-96
2023/05/27 13:23:23;;;;;;;;;;;17.50;77.50;;;;;;6168532;23;20177;-96
2023/05/27 13:25:49;;;;;;;;;;;17.50;77.60;;;;;;6164958;23;19923;-96
2023/05/27 13:28:29;;;;;;;;;;;17.50;77.20;;;;;;6166007;23;19972;-96
2023/05/27 13:30:55;;;;;;;;;;;17.40;76.70;;;;;;6169124;23;20310;-96
2023/05/27 13:33:46;;;;;;;;;;;17.50;77.10;;;;;;6162725;23;19909;-96
2023/05/27 13:36:12;;;;;;;;;;;17.50;77.20;;;;;;6026362;23;19890;-95
2023/05/27 13:38:38;;;;;;;;;;;17.50;77.20;;;;;;6025818;23;20277;-96
2023/05/27 13:41:04;;;;;;;;;;;17.40;77.20;;;;;;6018445;23;19985;-96
2023/05/27 13:43:32;;;;;;;;;;;17.40;77.30;;;;;;5994781;23;20347;-96
2023/05/27 13:45:58;;;;;;;;;;;17.60;77.40;;;;;;5994514;23;19910;-94
2023/05/27 13:48:30;;;;;;;;;;;17.40;77.50;;;;;;6020588;23;20328;-96
2023/05/27 13:51:22;;;;;;;;;;;17.40;77.30;;;;;;6017681;23;19906;-96
2023/05/27 13:53:48;;;;;;;;;;;17.40;77.40;;;;;;6042019;23;19906;-96
2023/05/27 13:56:23;;;;;;;;;;;17.40;77.50;;;;;;6022240;23;19906;-96
2023/05/27 13:58:50;;;;;;;;;;;17.30;77.40;;;;;;5994100;23;19910;-95
2023/05/27 14:01:16;;;;;;;;;;;17.40;77.00;;;;;;6038781;23;19914;-95
2023/05/27 14:03:42;;;;;;;;;;;17.40;77.30;;;;;;6015849;23;19910;-95
2023/05/27 14:06:18;;;;;;;;;;;17.40;77.30;;;;;;6019781;23;19913;-96
2023/05/27 14:08:48;;;;;;;;;;;17.40;77.00;;;;;;6024546;23;19942;-96
2023/05/27 14:11:16;;;;;;;;;;;17.90;77.60;;;;;;6023429;23;20324;-96
2023/05/27 14:13:44;;;;;;;;;;;17.40;77.50;;;;;;6095466;23;19913;-96
2023/05/27 14:16:10;;;;;;;;;;;17.40;77.50;;;;;;6162543;23;19928;-95
2023/05/27 14:18:41;;;;;;;;;;;17.40;77.10;;;;;;6166881;23;19904;-96
2023/05/27 14:21:07;;;;;;;;;;;17.40;76.80;;;;;;6163182;23;19904;-94
2023/05/27 14:23:33;;;;;;;;;;;17.40;77.00;;;;;;6164800;23;19896;-96